Columbia@I.B.

Start Stop
DateFlow
CFS
Gauge
Feet
DateFlow
CFS
Gauge
Feet
05/17/2022 06:0010900099.41
05/17/2022 05:0010800099.4
05/17/2022 04:0010800099.38
05/17/2022 03:0010900099.39
05/17/2022 02:0010800099.39
05/17/2022 01:0010800099.36
05/17/2022 00:0010900099.33
05/16/2022 23:00 99.33
05/16/2022 22:0010900099.32
05/16/2022 21:0010700099.36
05/16/2022 20:0010900099.33
05/16/2022 19:0010900099.32
05/16/2022 18:0010800099.32
05/16/2022 17:0010900099.31
05/16/2022 16:0010800099.32
05/16/2022 15:00 99.32
05/16/2022 14:0010800099.31
05/16/2022 13:0010700099.29
05/16/2022 12:00 99.29
05/16/2022 11:0010700099.33
05/16/2022 10:0010800099.31
05/16/2022 08:00 99.27
05/16/2022 07:0010800099.28
05/16/2022 06:0010700099.26
05/16/2022 05:0010800099.25
05/16/2022 04:0010600099.27
05/16/2022 03:0010700099.25
05/16/2022 02:0010800099.25
05/16/2022 00:0010700099.23
05/15/2022 22:0010600099.17
05/15/2022 21:0010600099.12
05/15/2022 20:0010700099.1
05/15/2022 19:0010500099.05
05/15/2022 18:00 99.04
05/15/2022 16:0010500099.06
05/15/2022 15:0010600099.05
05/15/2022 14:0010500099.05
05/15/2022 13:0010600099.02
05/15/2022 12:0010500099.02
05/15/2022 11:0010400099.04
05/15/2022 10:0010600099.04
05/15/2022 09:0010500099.08
05/15/2022 08:0010500099.07
05/15/2022 07:0010600099.08
05/15/2022 06:0010700099.08
05/15/2022 05:0010600099.09
05/15/2022 04:00 99.13
05/15/2022 03:0010600099.17
05/15/2022 02:0010700099.22
05/15/2022 01:0010800099.24
05/15/2022 00:0010800099.29
05/14/2022 23:0010700099.29
05/14/2022 22:0010800099.28
05/14/2022 21:00 99.3
05/14/2022 20:00 99.32
05/14/2022 19:0010800099.33
05/14/2022 18:0010900099.42
05/14/2022 17:0011000099.44
05/14/2022 16:00 99.43
05/14/2022 15:0011000099.41
05/14/2022 14:0010900099.41
05/14/2022 13:0010900099.43
05/14/2022 12:0011000099.52
05/14/2022 11:0011200099.63
05/14/2022 10:0011300099.85
05/14/2022 09:0011600099.95
05/14/2022 08:0011300099.99
05/14/2022 07:0011400099.94
05/14/2022 06:0011200099.64
05/14/2022 05:0010800099.29
05/14/2022 04:0010700099.16
05/14/2022 03:0010600099.09
05/14/2022 01:0010500099.01
05/14/2022 00:0010600099.04
05/13/2022 23:00 99.08
05/13/2022 22:0010600099.13
05/13/2022 21:0010700099.18
05/13/2022 20:0010700099.25
05/13/2022 19:0010800099.36
05/13/2022 18:0011000099.43
05/13/2022 17:0010900099.43
05/13/2022 16:0010900099.4
05/13/2022 15:0010800099.37
05/13/2022 14:0010900099.29
05/13/2022 13:0010700099.24
05/13/2022 12:0010600099.1
05/13/2022 11:00 99.05
05/13/2022 10:0010600099.07
05/13/2022 09:0010700099.21
05/13/2022 08:0010900099.36
05/13/2022 07:00 99.36
05/13/2022 06:00 99.38
05/13/2022 05:0010900099.39
05/13/2022 04:0010800099.38
05/13/2022 03:0010900099.41
05/13/2022 02:0010900099.42
05/13/2022 01:0011100099.48
05/13/2022 00:0011000099.5
05/12/2022 23:0011000099.58
05/12/2022 22:0011100099.6
05/12/2022 21:00 99.62
05/12/2022 20:0011100099.65
05/12/2022 19:0011200099.65
05/12/2022 18:0011100099.59
05/12/2022 17:00 99.59
05/12/2022 16:00 99.58
05/12/2022 15:00 99.57
05/12/2022 14:0011100099.57
05/12/2022 13:0011000099.53
05/12/2022 12:0010900099.47
05/12/2022 11:0011000099.45
05/12/2022 10:00 99.45
05/12/2022 09:0011000099.42
05/12/2022 08:0010900099.39
05/12/2022 07:0010900099.35
05/12/2022 06:0010800099.32
05/12/2022 04:0010700099.21
05/12/2022 03:00 99.2
05/12/2022 02:0010700099.21
05/12/2022 01:0010800099.19
05/12/2022 00:0010700099.2
05/11/2022 23:0010700099.21
05/11/2022 22:0010800099.17
05/11/2022 21:0010800099.17
05/11/2022 20:0010600099.15
05/11/2022 19:0010700099.17
05/11/2022 18:0010700099.16
05/11/2022 17:0010500099.14
05/11/2022 16:0010600099.07
05/11/2022 15:0010600099.1
05/11/2022 14:0010700099.13
05/11/2022 13:0010700099.13
05/11/2022 12:0010500099.1
05/11/2022 11:0010600099.14
05/11/2022 10:00107000 
05/11/2022 09:0010700099.14
05/11/2022 08:0010800099.15
05/11/2022 07:0010700099.29
05/11/2022 06:0010800099.37
05/11/2022 05:0010900099.5
05/11/2022 04:0011000099.64
05/11/2022 03:0011200099.78
05/11/2022 02:0011300099.76
05/11/2022 01:0011200099.69
05/11/2022 00:0011100099.5
05/10/2022 21:0010500098.87
05/10/2022 20:0010300098.76
05/10/2022 19:0010200098.62
05/10/2022 18:0010000098.32
05/10/2022 17:009800098.18
05/10/2022 16:009780098.2
05/10/2022 15:009750098.2
05/10/2022 14:009830098.24
05/10/2022 13:009910098.34
05/10/2022 12:0010000098.46
05/10/2022 11:0010100098.72
05/10/2022 10:0010500098.97
05/10/2022 09:00 98.96
05/10/2022 08:00 98.98
05/10/2022 07:0010500099.02
05/10/2022 06:0010600099.13
05/10/2022 05:0010700099.24
05/10/2022 04:0010700099.2
05/10/2022 02:0010400098.92
05/10/2022 01:0010400098.86
05/10/2022 00:0010300098.77
05/09/2022 23:0010100098.63
05/09/2022 22:0010000098.49
05/09/2022 21:009930098.37
05/09/2022 20:009810098.28
05/09/2022 19:00 98.24
05/09/2022 18:0098300 
05/09/2022 17:00 103.23
05/09/2022 16:009760098.22
05/09/2022 15:009750098.25
05/09/2022 14:009920098.27
05/09/2022 13:009860098.33
05/09/2022 12:009960098.28
05/09/2022 11:009910098.34
05/09/2022 10:0010100098.54
05/09/2022 09:0010300098.66
05/09/2022 08:0010200098.71
05/09/2022 07:0010200098.73
05/09/2022 06:0010300098.75
05/09/2022 05:0010200098.76
05/09/2022 04:0010300098.81
05/09/2022 03:0010500099.05
05/09/2022 02:0010700099.26
05/09/2022 01:00 99.23
05/09/2022 00:0010700099.2
05/08/2022 23:0010600099.17
05/08/2022 22:00 99.06
05/08/2022 21:0010600098.9
05/08/2022 20:0010300098.67
05/08/2022 19:0010100098.66
05/08/2022 18:0010200098.71
05/08/2022 17:0010300098.7
05/08/2022 16:0010100098.7
05/08/2022 15:0010200098.69
05/08/2022 14:0010100098.65
05/08/2022 13:0010200098.66
05/08/2022 12:0010100098.67
05/08/2022 11:0010200098.61
05/08/2022 10:0010000098.53
05/08/2022 09:009980098.37
05/08/2022 07:0010100098.67
05/08/2022 06:0010300098.79
05/08/2022 05:0010200098.75
05/08/2022 04:0010200098.69
05/08/2022 03:0010300098.61
05/08/2022 02:0010100098.47
05/08/2022 01:009850098.21
05/08/2022 00:009420097.65
05/07/2022 23:009310097.55
05/07/2022 22:009220097.34
05/07/2022 21:008880097.05
05/07/2022 20:008720096.75
05/07/2022 19:008290096.34
05/07/2022 18:008260096.35
05/07/2022 17:008290096.35
05/07/2022 16:008270096.34
05/07/2022 15:008230096.35
05/07/2022 14:008310096.34
05/07/2022 13:008240096.29
05/07/2022 12:008220096.31
05/07/2022 11:008300096.28
05/07/2022 10:008260096.25
05/07/2022 09:008220096.18
05/07/2022 08:008140096.09
05/07/2022 07:008030096.02
05/07/2022 06:008080096
05/07/2022 04:008220096.27
05/07/2022 03:008290096.3
05/07/2022 02:008220096.28
05/07/2022 01:008190096.25
05/07/2022 00:008180096.3
05/06/2022 23:008310096.47
05/06/2022 22:008600097.04
05/06/2022 21:008890097.06
05/06/2022 20:008840097.06
05/06/2022 19:008820097.09
05/06/2022 18:008850097.1
05/06/2022 17:008960097.12
05/06/2022 16:008960097.11
05/06/2022 15:008860097.07
05/06/2022 14:008770097
05/06/2022 13:008800096.97
05/06/2022 12:008800097.02
05/06/2022 11:008910097.15
05/06/2022 10:008970097.3
05/06/2022 09:009030097.28
05/06/2022 08:008990097.21
05/06/2022 07:008840096.97
05/06/2022 06:008440096.39
05/06/2022 05:008270096.29
05/06/2022 04:008170096.13
05/06/2022 03:008000095.94
05/06/2022 01:007810095.66
05/06/2022 00:007740095.63
05/05/2022 23:007680095.64
05/05/2022 22:007850095.8
05/05/2022 21:008060096.22
05/05/2022 20:008240096.15
05/05/2022 19:008030095.95
05/05/2022 18:007800095.48
05/05/2022 17:007590095.45
05/05/2022 16:007640095.44
05/05/2022 15:007610095.41
05/05/2022 14:007550095.37
05/05/2022 13:007550095.34
05/05/2022 12:007510095.3
05/05/2022 11:007430095.26
05/05/2022 10:007500095.22
05/05/2022 09:007440095.2
05/05/2022 08:007490095.19
05/05/2022 06:007490095.21
05/05/2022 05:007460095.16
05/05/2022 04:007410095.13
05/05/2022 03:007350095.11
05/05/2022 02:007450095.11
05/05/2022 01:007380095.2
05/05/2022 00:007530095.52
05/04/2022 23:007960095.96
05/04/2022 22:007870095.92
05/04/2022 21:007990095.85
05/04/2022 20:007780095.51
05/04/2022 19:007510095.24
05/04/2022 18:007480095.27
05/04/2022 17:007470095.25
05/04/2022 16:00 99.95
05/04/2022 15:007460095.23
05/04/2022 14:00 99.99
05/04/2022 13:007440095.2
05/04/2022 12:007430095.13
05/04/2022 11:007430095.06
05/04/2022 10:007370094.94
05/04/2022 09:00 99.63
05/04/2022 08:007020094.57
05/04/2022 07:006890094.25
05/04/2022 06:006450093.47
05/04/2022 05:006320093.51
05/04/2022 04:006380093.53
05/04/2022 03:006360093.56
05/04/2022 02:006400093.71
05/04/2022 01:006640094.22
05/04/2022 00:007270095.37
05/03/2022 23:008050095.96
05/03/2022 22:008040095.98
05/03/2022 21:0079600 
05/03/2022 20:007980095.98
05/03/2022 19:008050096.01
05/03/2022 18:008020096.02
05/03/2022 17:008120096.03
05/03/2022 15:008070096.09
05/03/2022 14:008120096.04
05/03/2022 13:008080095.99
05/03/2022 12:008030095.85
05/03/2022 11:007870095.73
05/03/2022 10:007830095.59
05/03/2022 09:007550095.29
05/03/2022 08:007190094.73
05/03/2022 07:007130094.64
05/03/2022 06:006970094.22
05/03/2022 05:006370093.38
05/03/2022 04:006310093.4
05/03/2022 03:006320093.46
05/03/2022 02:006300093.56
05/03/2022 01:006440093.8
05/02/2022 23:007680095.82
05/02/2022 22:007930095.82
05/02/2022 21:007890095.79
05/02/2022 20:007950095.79
05/02/2022 19:007970095.76
05/02/2022 18:007830095.61
05/02/2022 17:007650095.16
05/02/2022 16:007410095.2
05/02/2022 15:007510095.17
05/02/2022 14:007380095.09
05/02/2022 13:007340095.01
05/02/2022 12:007300094.93
05/02/2022 11:007350094.9
05/02/2022 10:007220094.87
05/02/2022 09:007250094.82
05/02/2022 08:007200094.73
05/02/2022 07:007060094.52
05/02/2022 06:006890094.05
05/02/2022 05:006190093.11
05/02/2022 03:00 93.2
05/02/2022 02:006190093.33
05/02/2022 01:006310093.63
05/02/2022 00:006630094.56
05/01/2022 23:007790095.57
05/01/2022 22:007740095.57
05/01/2022 21:007710095.53
05/01/2022 20:007710095.43
05/01/2022 19:007490094.96
05/01/2022 18:006900094.19
05/01/2022 17:006390093.52
05/01/2022 16:006400093.61
05/01/2022 15:006440093.66
05/01/2022 14:006500093.87
05/01/2022 12:007520095.29
05/01/2022 11:007920095.75
05/01/2022 10:007760095.41
05/01/2022 09:007280094.76
05/01/2022 08:007170094.52
05/01/2022 07:006920093.82
05/01/2022 06:005880092.63
05/01/2022 05:005520092.05
05/01/2022 04:005500092.19
05/01/2022 03:005630092.43
05/01/2022 02:005790093
05/01/2022 01:006540094.02
05/01/2022 00:006770094.43
04/30/2022 23:007440095.33
04/30/2022 22:007720095.76
04/30/2022 21:007820095.61
04/30/2022 20:007700095.48
04/30/2022 19:007620095.24
04/30/2022 18:007150094.71
04/30/2022 17:007170094.65
04/30/2022 16:007020094.44
04/30/2022 15:006550093.89
04/30/2022 14:006690094.13
04/30/2022 13:006850094.46
04/30/2022 12:007160095.06
04/30/2022 11:007980096.06
04/30/2022 10:008380096.59
04/30/2022 09:008460096.44
04/30/2022 08:008180096.03
04/30/2022 07:007530094.85
04/30/2022 06:006760093.53
04/30/2022 05:005850092.6
04/30/2022 04:005750092.54
04/30/2022 03:005700092.57
04/30/2022 02:005760092.77
04/30/2022 01:006010093.47
04/30/2022 00:006980094.8
04/29/2022 23:007610095.31
04/29/2022 22:007560095.26
04/29/2022 21:007470095.28
04/29/2022 20:007530095.31
04/29/2022 19:007580095.34
04/29/2022 18:007620095.45
04/29/2022 17:007740095.78
04/29/2022 16:008010095.86
04/29/2022 15:008050095.99
04/29/2022 14:008030095.95
04/29/2022 13:007950095.9
04/29/2022 12:007890095.81
04/29/2022 11:007810095.6
04/29/2022 10:007450094.98
04/29/2022 09:007350094.95
04/29/2022 08:007250094.89
04/29/2022 07:007210094.76
04/29/2022 06:007080094.39
04/29/2022 05:006480093.57
04/29/2022 04:006440093.64
04/29/2022 03:006470093.76
04/29/2022 02:006620094.18
04/29/2022 01:007250094.99
04/29/2022 00:007290094.95
04/28/2022 23:007340094.96
04/28/2022 22:007300094.83
04/28/2022 21:007170094.43
04/28/2022 20:006470093.54
04/28/2022 19:006390093.58
04/28/2022 18:006490093.83
04/28/2022 17:007020094.55
04/28/2022 16:007000094.41
04/28/2022 15:006920094.34
04/28/2022 14:006890094.32
04/28/2022 13:006870094.32
04/28/2022 12:006920094.35
04/28/2022 11:006910094.45
04/28/2022 10:007050094.64
04/28/2022 09:007390095.2
04/28/2022 08:007470095.12
04/28/2022 07:007330094.87
04/28/2022 06:00 99.27
04/28/2022 05:006830094.18
04/28/2022 04:006740094.06
04/28/2022 03:006740094.05
04/28/2022 02:006670094.1
04/28/2022 01:006750094.19
04/28/2022 00:006850094.41
04/27/2022 23:006980094.63
04/27/2022 22:007320095.26
04/27/2022 21:007590095.29
04/27/2022 20:007510095.27
04/27/2022 19:007490095.23
04/27/2022 18:007450095.16
04/27/2022 17:007370094.97
04/27/2022 16:007040094.67
04/27/2022 15:007370095.27
04/27/2022 14:007430095.22
04/27/2022 13:007360094.92
04/27/2022 12:007000094.21
04/27/2022 11:006680094.02
04/27/2022 10:006470093.49
04/27/2022 09:006330093.48
04/27/2022 08:006290093.47
04/27/2022 07:006400093.42
04/27/2022 06:005730091.63
04/27/2022 05:004520090.26
04/27/2022 04:004400090.24
04/27/2022 03:004380094.81
04/27/2022 02:004440090.34
04/27/2022 01:004540090.54
04/27/2022 00:004690095.4
04/26/2022 23:005220092.71
04/26/2022 22:006670094.3
04/26/2022 21:006820094.28
04/26/2022 20:006840094.26
04/26/2022 19:006760094.21
04/26/2022 18:006820094.11
04/26/2022 17:006680093.77
04/26/2022 15:005970092.89
04/26/2022 14:005940092.93
04/26/2022 13:005960093.05
04/26/2022 12:006150093.47
04/26/2022 11:006730094.35
04/26/2022 10:006840094.34
04/26/2022 09:006820094.27
04/26/2022 08:006800094.11
04/26/2022 07:006660093.75
04/26/2022 06:006100092.9
04/26/2022 05:006010092.97
04/26/2022 04:006030093.03
04/26/2022 03:006060093.08
04/26/2022 02:006060093.14
04/26/2022 01:006150093.23
04/26/2022 00:006230093.41
04/25/2022 23:006390093.81
04/25/2022 22:006960094.57
04/25/2022 21:007070094.41
04/25/2022 20:006850093.99
04/25/2022 19:006160093.22
04/25/2022 18:006210093.26
04/25/2022 17:006160093.28
04/25/2022 16:006200093.27
04/25/2022 15:006180093.3
04/25/2022 14:006260093.32
04/25/2022 13:006230093.33
04/25/2022 12:006170093.32
04/25/2022 11:006210093.32
04/25/2022 10:006230093.31
04/25/2022 09:006180093.26
04/25/2022 08:006180093.09
04/25/2022 07:005950092.58
04/25/2022 06:005260091.76
04/25/2022 05:005250091.76
04/25/2022 04:005240091.77
04/25/2022 03:005270091.82
04/25/2022 02:005320091.98
04/25/2022 01:005510092.5
04/25/2022 00:006190093.58
04/24/2022 23:006460094.01
04/24/2022 22:007080094.89
04/24/2022 21:007190094.89
04/24/2022 20:007210094.93
04/24/2022 19:007290094.95
04/24/2022 18:007240094.95
04/24/2022 17:007300094.92
04/24/2022 16:007200094.9
04/24/2022 15:007230094.88
04/24/2022 14:007170094.87
04/24/2022 13:007170094.85
04/24/2022 12:007140094.79
04/24/2022 11:007190094.7
04/24/2022 10:007070094.36
04/24/2022 09:006500093.53
04/24/2022 08:006390093.54
04/24/2022 07:006410093.65
04/24/2022 06:006520093.92
04/24/2022 05:006920094.79
04/24/2022 04:007270094.84
04/24/2022 03:007240094.84
04/24/2022 02:007230094.86
04/24/2022 01:007210094.87
04/24/2022 00:007200094.86
04/23/2022 23:007200094.85
04/23/2022 22:007250094.86
04/23/2022 21:007230094.87
04/23/2022 20:007280094.87
04/23/2022 19:007370094.89
04/23/2022 18:007270094.88
04/23/2022 17:007230094.87
04/23/2022 16:007220094.85
04/23/2022 15:007230094.84
04/23/2022 14:007190094.8
04/23/2022 13:007240094.76
04/23/2022 12:007130094.62
04/23/2022 11:006960094.22
04/23/2022 10:006400093.42
04/23/2022 09:006280093.46
04/23/2022 08:006310093.56
04/23/2022 07:006370093.63
04/23/2022 06:006500093.83
04/23/2022 05:006670094.32
04/23/2022 04:007400095.19
04/23/2022 03:007490095.22
04/23/2022 02:007460095.23
04/23/2022 01:007550095.24
04/23/2022 00:007550095.27
04/22/2022 23:007540095.28
04/22/2022 22:007530095.27
04/22/2022 21:007490095.29
04/22/2022 20:007530095.28
04/22/2022 19:007490095.28
04/22/2022 18:007530095.29
04/22/2022 17:007520095.27
04/22/2022 16:007530095.26
04/22/2022 15:007510095.24
04/22/2022 14:007500095.22
04/22/2022 13:007470095.2
04/22/2022 12:007520095.18
04/22/2022 11:007460095.14
04/22/2022 10:007460095.22
04/22/2022 09:007490095.22
04/22/2022 08:007500095.21
04/22/2022 07:007470095.2
04/22/2022 06:007470095.18
04/22/2022 05:007430095.05
04/22/2022 04:007400095.03
04/22/2022 03:007320095.03
04/22/2022 02:007310095
04/22/2022 01:007350095.01
04/22/2022 00:007350094.98
04/21/2022 23:007360094.99
04/21/2022 22:007370094.97
04/21/2022 21:007260094.92
04/21/2022 20:007230094.82
04/21/2022 19:007140094.65
04/21/2022 18:007000094.43
04/21/2022 17:006830094.08
04/21/2022 16:006540093.61
04/21/2022 15:006290093.34
04/21/2022 14:006190093.21
04/21/2022 13:006240093.27
04/21/2022 12:006230093.34
04/21/2022 11:006180093.33
04/21/2022 10:006190093.3
04/21/2022 09:006240093.3
04/21/2022 08:006200093.29
04/21/2022 07:006240093.32
04/21/2022 06:006190093.31
04/21/2022 05:006190093.31
04/21/2022 04:006210093.29
04/21/2022 03:006260093.3
04/21/2022 02:006210093.32
04/21/2022 01:006270093.34
04/21/2022 00:006250093.36
04/20/2022 23:006210093.36
04/20/2022 22:006260093.31
04/20/2022 21:006210093.17
04/20/2022 20:006040092.77
04/20/2022 19:005430091.86
04/20/2022 18:005340091.87
04/20/2022 17:005380091.89
04/20/2022 16:005320091.87
04/20/2022 15:005300091.89
04/20/2022 14:005320091.94
04/20/2022 13:005370092.05
04/20/2022 12:005540092.49
04/20/2022 11:006150093.25
04/20/2022 10:006210093.13
04/20/2022 09:005990092.69
04/20/2022 08:005380091.75
04/20/2022 07:005260091.59
04/20/2022 06:005090091.03
04/20/2022 05:004390090.21
04/20/2022 04:004380090.21
04/20/2022 03:004380090.22
04/20/2022 02:004440090.27
04/20/2022 01:004450090.37
04/20/2022 00:004480090.63
04/19/2022 23:004660091.36
04/19/2022 22:005520092.46
04/19/2022 21:005840093.2
04/19/2022 20:006520093.83
04/19/2022 19:006570093.9
04/19/2022 18:006540093.81
04/19/2022 17:006470093.7
04/19/2022 16:006440093.56
04/19/2022 15:006290093.42
04/19/2022 14:006170093.17
04/19/2022 13:006050092.82
04/19/2022 12:005540092.21
04/19/2022 11:005540092.34
04/19/2022 10:005660092.74
04/19/2022 09:006250093.32
04/19/2022 08:006130093.28
04/19/2022 07:006180093
04/19/2022 06:005820091.66
04/19/2022 05:004520090.23
04/19/2022 04:004400090.22
04/19/2022 03:004330090.24
04/19/2022 02:004440090.39
04/19/2022 01:004550090.93
04/19/2022 00:005170091.83
04/18/2022 23:005300091.86
04/18/2022 22:005350091.99
04/18/2022 21:005500092.1
04/18/2022 20:005450092.1
04/18/2022 19:005530092.12
04/18/2022 18:005460092.16
04/18/2022 17:005520092.37
04/18/2022 16:005800092.97
04/18/2022 15:006090093.23
04/18/2022 14:006190093.25
04/18/2022 13:006170093.23
04/18/2022 12:006140093.12
04/18/2022 11:006040092.75
04/18/2022 10:005500091.89
04/18/2022 09:005350091.89
04/18/2022 08:005360091.91
04/18/2022 07:005320091.89
04/18/2022 06:0053500 
04/18/2022 05:005380091.89
04/18/2022 04:005350091.9
04/18/2022 03:005380091.91
04/18/2022 02:005340091.95
04/18/2022 01:005390092.09
04/18/2022 00:005570092.5
04/17/2022 23:006100093.31
04/17/2022 22:006130093.15
04/17/2022 21:006080092.73
04/17/2022 20:005440091.81
04/17/2022 19:005310091.81
04/17/2022 18:005230091.78
04/17/2022 17:005250091.78
04/17/2022 16:005280091.77
04/17/2022 15:005260091.79
04/17/2022 14:005290091.82
04/17/2022 13:005290091.82
04/17/2022 12:005240091.81
04/17/2022 11:005300091.8
04/17/2022 10:005290091.81
04/17/2022 09:005250091.81
04/17/2022 08:005230091.8

Start Stop